Time;durP1;ratioP1;P1;durP2;ratioP2;P2;SDS_P1;SDS_P2;PMS_P1;PMS_P2;Temp;Humidity;BMP_temperature;BMP_pressure;BME280_temperature;BME280_humidity;BME280_pressure;Samples;Min_cycle;Max_cycle;Signal;HPM_P1;HPM_P2
2022/06/21 00:00:11;;;;;;;;;;;;;;;26.88;51.71;99127.47;4451256;32;19985;-84
2022/06/21 00:02:39;;;;;;;;;;;;;;;26.78;52.13;99144.94;4433231;32;19985;-84
2022/06/21 00:05:09;;;;;;;;;;;;;;;26.59;53.09;99139.03;4432217;32;19969;-83
2022/06/21 00:07:36;;;;;;;;;;;;;;;25.93;54.99;99130.53;4440753;32;19977;-83
2022/06/21 00:10:03;;;;;;;;;;;;;;;26.40;53.53;99124.19;4432530;32;19981;-85
2022/06/21 00:12:30;;;;;;;;;;;;;;;26.81;52.11;99139.44;4446302;32;20008;-84
2022/06/21 00:14:56;;;;;;;;;;;;;;;26.71;52.58;99140.94;4446744;32;19981;-84
2022/06/21 00:17:24;;;;;;;;;;;;;;;26.34;53.72;99140.47;4445163;32;20004;-84
2022/06/21 00:19:50;;;;;;;;;;;;;;;26.64;52.61;99147.56;4430846;32;20060;-84
2022/06/21 00:22:18;;;;;;;;;;;;;;;26.38;53.40;99146.47;4433987;32;20378;-83
2022/06/21 00:24:45;;;;;;;;;;;;;;;26.11;54.43;99156.94;4432396;32;20669;-83
2022/06/21 00:27:16;;;;;;;;;;;;;;;26.21;54.06;99156.28;4450915;32;20034;-84
2022/06/21 00:29:45;;;;;;;;;;;;;;;25.89;55.13;99176.72;4444866;32;20000;-84
2022/06/21 00:32:16;;;;;;;;;;;;;;;25.69;55.90;99184.94;4446002;32;20028;-83
2022/06/21 00:34:43;;;;;;;;;;;;;;;26.05;54.82;99175.84;4432235;32;19995;-83
2022/06/21 00:37:14;;;;;;;;;;;;;;;26.14;54.48;99177.97;4432213;32;20000;-83
2022/06/21 00:39:41;;;;;;;;;;;;;;;25.52;56.72;99180.56;4446089;32;20037;-83
2022/06/21 00:42:30;;;;;;;;;;;;;;;25.88;55.08;99185.66;4432129;32;20045;-83
2022/06/21 00:45:02;;;;;;;;;;;;;;;25.78;55.09;99179.09;4437607;32;19990;-83
2022/06/21 00:47:35;;;;;;;;;;;;;;;25.65;55.12;99168.34;4445911;32;20033;-83
2022/06/21 00:50:04;;;;;;;;;;;;;;;25.87;53.84;99175.97;4435958;32;20318;-83
2022/06/21 00:52:34;;;;;;;;;;;;;;;25.82;53.39;99175.38;4431885;32;20001;-84
2022/06/21 00:55:04;;;;;;;;;;;;;;;26.00;52.36;99172.59;4447844;32;20324;-83
2022/06/21 00:57:35;;;;;;;;;;;;;;;26.04;51.97;99167.03;4436091;32;19978;-83
2022/06/21 01:00:20;;;;;;;;;;;;;;;26.11;51.36;99170.19;4433791;32;20012;-84
2022/06/21 01:02:47;;;;;;;;;;;;;;;25.89;52.12;99174.09;4447755;32;20030;-83
2022/06/21 01:05:14;;;;;;;;;;;;;;;25.88;51.75;99159.12;4436595;32;19989;-83
2022/06/21 01:07:42;;;;;;;;;;;;;;;25.98;51.30;99155.00;4441354;32;19985;-83
2022/06/21 01:10:09;;;;;;;;;;;;;;;25.98;51.35;99138.22;4447930;32;20000;-83
2022/06/21 01:12:36;;;;;;;;;;;;;;;25.70;52.20;99125.69;4438337;32;20009;-83
2022/06/21 01:15:07;;;;;;;;;;;;;;;25.31;53.91;99161.44;4463773;32;20020;-83
2022/06/21 01:17:34;;;;;;;;;;;;;;;25.67;52.75;99160.31;4415438;32;20004;-83
2022/06/21 01:20:03;;;;;;;;;;;;;;;25.47;53.08;99156.16;4435999;32;20449;-83
2022/06/21 01:22:32;;;;;;;;;;;;;;;25.43;52.81;99163.41;4426785;32;19994;-83
2022/06/21 01:25:06;;;;;;;;;;;;;;;25.32;53.11;99165.78;4418240;32;20012;-83
2022/06/21 01:27:32;;;;;;;;;;;;;;;25.39;52.06;99182.19;4448169;32;20035;-83
2022/06/21 01:29:59;;;;;;;;;;;;;;;25.37;51.48;99190.25;4441355;32;19981;-83
2022/06/21 01:32:26;;;;;;;;;;;;;;;25.44;50.86;99196.91;4447812;32;19973;-83
2022/06/21 01:34:54;;;;;;;;;;;;;;;25.37;50.87;99206.16;4456198;32;20019;-83
2022/06/21 01:37:25;;;;;;;;;;;;;;;25.50;50.12;99207.19;4447868;32;19985;-83
2022/06/21 01:39:52;;;;;;;;;;;;;;;25.34;50.21;99210.78;4433627;32;20022;-83
2022/06/21 01:42:21;;;;;;;;;;;;;;;25.35;50.07;99212.47;4438777;32;20011;-84
2022/06/21 01:44:50;;;;;;;;;;;;;;;25.22;49.98;99202.53;4433655;32;19977;-83
2022/06/21 01:47:19;;;;;;;;;;;;;;;25.54;48.99;99212.31;4435499;32;20395;-83
2022/06/21 01:49:48;;;;;;;;;;;;;;;25.29;49.58;99208.34;4439528;32;19999;-84
2022/06/21 01:52:17;;;;;;;;;;;;;;;25.40;49.15;99203.34;4433121;32;20381;-84
2022/06/21 01:54:44;;;;;;;;;;;;;;;25.25;49.21;99201.50;4437571;32;20029;-83
2022/06/21 01:57:11;;;;;;;;;;;;;;;25.12;49.43;99211.03;4420687;32;20186;-83
2022/06/21 01:59:39;;;;;;;;;;;;;;;24.85;50.20;99222.13;4431798;32;20035;-83
2022/06/21 02:02:11;;;;;;;;;;;;;;;24.82;50.34;99219.66;4425062;32;19988;-83
2022/06/21 02:04:42;;;;;;;;;;;;;;;24.73;50.74;99214.84;4405599;32;19981;-84
2022/06/21 02:07:11;;;;;;;;;;;;;;;24.80;50.47;99221.53;4430415;32;19997;-83
2022/06/21 02:09:38;;;;;;;;;;;;;;;24.91;50.08;99213.88;4418029;32;20315;-83
2022/06/21 02:12:06;;;;;;;;;;;;;;;24.85;50.18;99216.00;4115987;32;10000694;-83
2022/06/21 02:14:41;;;;;;;;;;;;;;;24.80;50.35;99225.03;4430979;32;19989;-83
2022/06/21 02:17:23;;;;;;;;;;;;;;;24.73;50.73;99230.72;4416523;32;19995;-83
2022/06/21 02:20:05;;;;;;;;;;;;;;;24.74;50.62;99237.75;4438539;32;19989;-83
2022/06/21 02:22:32;;;;;;;;;;;;;;;25.05;49.76;99240.50;4417781;32;19981;-83
2022/06/21 02:24:59;;;;;;;;;;;;;;;24.70;50.79;99229.09;4424002;32;20019;-83
2022/06/21 02:27:27;;;;;;;;;;;;;;;25.01;49.80;99233.63;4430381;32;20068;-83
2022/06/21 02:29:54;;;;;;;;;;;;;;;24.82;50.55;99225.81;4418485;32;19989;-83
2022/06/21 02:32:25;;;;;;;;;;;;;;;24.88;50.33;99229.06;4430826;32;19985;-83
2022/06/21 02:34:54;;;;;;;;;;;;;;;24.79;50.19;99219.81;4431936;32;20046;-83
2022/06/21 02:37:21;;;;;;;;;;;;;;;24.83;49.95;99216.09;4425140;32;19969;-83
2022/06/21 02:39:48;;;;;;;;;;;;;;;24.70;49.48;99215.03;4434757;32;20028;-84
2022/06/21 02:42:17;;;;;;;;;;;;;;;23.88;51.13;99204.97;4436739;32;19986;-83
2022/06/21 02:44:45;;;;;;;;;;;;;;;24.12;49.85;99224.06;4424666;32;20026;-83
2022/06/21 02:47:13;;;;;;;;;;;;;;;24.12;49.19;99209.06;4404929;32;19969;-83
2022/06/21 02:49:48;;;;;;;;;;;;;;;24.32;48.22;99210.72;4405181;32;20004;-83
2022/06/21 02:52:21;;;;;;;;;;;;;;;24.26;47.81;99220.75;4433717;32;19992;-83
2022/06/21 02:54:51;;;;;;;;;;;;;;;23.86;48.80;99222.69;4424450;32;19981;-83
2022/06/21 02:57:24;;;;;;;;;;;;;;;23.60;49.49;99232.69;4431583;32;20377;-83
2022/06/21 02:59:50;;;;;;;;;;;;;;;23.83;49.00;99228.12;4431756;32;20008;-83
2022/06/21 03:02:19;;;;;;;;;;;;;;;23.52;49.91;99237.50;4422437;32;20048;-83
2022/06/21 03:04:48;;;;;;;;;;;;;;;23.56;49.92;99252.25;4431621;32;19996;-84
2022/06/21 03:07:20;;;;;;;;;;;;;;;23.62;49.85;99273.12;4424413;32;20001;-84
2022/06/21 03:10:06;;;;;;;;;;;;;;;23.79;49.31;99263.56;4422103;32;20003;-83
2022/06/21 03:12:33;;;;;;;;;;;;;;;23.61;49.64;99279.34;4427783;32;19973;-83
2022/06/21 03:15:10;;;;;;;;;;;;;;;23.42;50.28;99283.72;4399587;32;20477;-82
2022/06/21 03:17:40;;;;;;;;;;;;;;;23.04;51.58;99291.59;4418731;32;20027;-84
2022/06/21 03:20:15;;;;;;;;;;;;;;;23.22;51.23;99289.91;4417281;32;20032;-83
2022/06/21 03:22:42;;;;;;;;;;;;;;;23.12;51.44;99297.38;4438962;32;19991;-83
2022/06/21 03:25:15;;;;;;;;;;;;;;;23.47;50.52;99289.69;4417263;32;19996;-83
2022/06/21 03:27:50;;;;;;;;;;;;;;;23.41;50.68;99297.88;4418865;32;20331;-83
2022/06/21 03:30:18;;;;;;;;;;;;;;;23.44;50.26;99292.47;4438083;32;20004;-83
2022/06/21 03:32:45;;;;;;;;;;;;;;;23.18;51.16;99299.75;4417992;32;20000;-83
2022/06/21 03:35:13;;;;;;;;;;;;;;;23.24;50.88;99305.72;4418930;32;19991;-83
2022/06/21 03:37:40;;;;;;;;;;;;;;;23.18;50.66;99315.59;4424662;32;20429;-83
2022/06/21 03:42:54;;;;;;;;;;;;;;;23.07;50.03;99328.44;4418715;32;19993;-82
2022/06/21 03:45:23;;;;;;;;;;;;;;;23.11;49.59;99330.00;4400673;32;20002;-83
2022/06/21 03:48:05;;;;;;;;;;;;;;;22.60;51.29;99333.06;4430293;32;20417;-83
2022/06/21 03:50:40;;;;;;;;;;;;;;;22.91;49.68;99333.47;4425217;32;19986;-83
2022/06/21 03:53:33;;;;;;;;;;;;;;;22.78;48.63;99331.41;4421049;32;19998;-82
2022/06/21 03:56:06;;;;;;;;;;;;;;;23.15;47.57;99331.59;4414242;32;19985;-83
2022/06/21 03:58:48;;;;;;;;;;;;;;;22.60;47.77;99344.47;4437289;32;20022;-82
2022/06/21 04:01:24;;;;;;;;;;;;;;;22.44;47.08;99340.72;4418776;32;21529;-83
2022/06/21 04:04:10;;;;;;;;;;;;;;;22.51;46.84;99343.03;4432398;32;20030;-83
2022/06/21 04:06:40;;;;;;;;;;;;;;;22.53;46.56;99345.63;4445731;32;20000;-83
2022/06/21 04:09:11;;;;;;;;;;;;;;;22.49;46.95;99346.66;4420307;32;19988;-82
2022/06/21 04:11:41;;;;;;;;;;;;;;;22.70;46.31;99350.22;4446355;32;19973;-82
2022/06/21 04:14:26;;;;;;;;;;;;;;;22.80;45.69;99345.41;4434581;32;19989;-82
2022/06/21 04:16:54;;;;;;;;;;;;;;;22.72;45.63;99341.31;4442632;32;19994;-83
2022/06/21 04:19:21;;;;;;;;;;;;;;;22.66;46.08;99343.34;4443008;32;19976;-83
2022/06/21 04:21:50;;;;;;;;;;;;;;;22.87;44.39;99350.34;4448195;32;19978;-83
2022/06/21 04:24:37;;;;;;;;;;;;;;;22.55;44.99;99356.97;4433111;32;20008;-81
2022/06/21 04:27:06;;;;;;;;;;;;;;;22.29;44.62;99345.69;4446231;32;19985;-80
2022/06/21 04:29:35;;;;;;;;;;;;;;;22.56;43.00;99342.88;4408728;32;19981;-81
2022/06/21 04:32:02;;;;;;;;;;;;;;;22.74;42.13;99344.72;4438746;32;19985;-80
2022/06/21 04:34:35;;;;;;;;;;;;;;;22.83;40.97;99355.84;4446210;32;19977;-80
2022/06/21 04:37:06;;;;;;;;;;;;;;;22.69;41.68;99349.34;4440055;32;19985;-81
2022/06/21 04:39:39;;;;;;;;;;;;;;;22.44;42.35;99364.47;4460785;32;20303;-81
2022/06/21 04:42:07;;;;;;;;;;;;;;;22.64;41.29;99372.41;4436849;32;20479;-81
2022/06/21 04:44:34;;;;;;;;;;;;;;;22.79;40.71;99370.09;4434020;32;19993;-88
2022/06/21 04:47:04;;;;;;;;;;;;;;;22.59;41.66;99363.84;4452707;32;19977;-81
2022/06/21 04:49:31;;;;;;;;;;;;;;;22.56;41.59;99363.09;4446122;32;19973;-82
2022/06/21 04:52:00;;;;;;;;;;;;;;;22.62;40.80;99369.00;4438884;32;19982;-81
2022/06/21 04:54:28;;;;;;;;;;;;;;;22.60;41.25;99370.84;4414380;32;20036;-82
2022/06/21 04:56:55;;;;;;;;;;;;;;;22.63;40.94;99370.72;4413184;32;20682;-81
2022/06/21 04:59:32;;;;;;;;;;;;;;;22.73;41.05;99366.78;4423461;32;19974;-82
2022/06/21 05:02:00;;;;;;;;;;;;;;;22.69;41.31;99366.97;4421751;32;20047;-83
2022/06/21 05:04:29;;;;;;;;;;;;;;;22.85;41.05;99370.69;4435703;32;19999;-80
2022/06/21 05:06:57;;;;;;;;;;;;;;;22.48;41.75;99372.19;4431922;32;20003;-80
2022/06/21 05:09:24;;;;;;;;;;;;;;;22.52;42.09;99380.81;4431826;32;20045;-80
2022/06/21 05:11:56;;;;;;;;;;;;;;;22.73;41.49;99381.75;4432086;32;19985;-81
2022/06/21 05:14:23;;;;;;;;;;;;;;;22.88;41.09;99385.56;4452182;32;19990;-80
2022/06/21 05:16:50;;;;;;;;;;;;;;;22.55;41.76;99383.34;4440027;32;20324;-80
2022/06/21 05:19:26;;;;;;;;;;;;;;;22.95;40.39;99387.03;4445501;32;19987;-80
2022/06/21 05:22:02;;;;;;;;;;;;;;;22.80;40.95;99388.47;4438588;32;20031;-82
2022/06/21 05:24:29;;;;;;;;;;;;;;;22.75;41.10;99391.31;4445528;32;19996;-82
2022/06/21 05:26:59;;;;;;;;;;;;;;;22.75;40.76;99385.19;4430319;32;20348;-83
2022/06/21 05:29:29;;;;;;;;;;;;;;;22.68;41.59;99389.84;4453699;32;19990;-82
2022/06/21 05:31:57;;;;;;;;;;;;;;;22.45;42.21;99397.81;4446352;32;19999;-83
2022/06/21 05:34:26;;;;;;;;;;;;;;;22.46;41.66;99400.41;4438409;32;20039;-81
2022/06/21 05:37:12;;;;;;;;;;;;;;;22.59;40.42;99400.78;4438274;32;20525;-81
2022/06/21 05:39:45;;;;;;;;;;;;;;;22.84;39.57;99399.78;4437606;32;20022;-81
2022/06/21 05:42:12;;;;;;;;;;;;;;;22.53;41.25;99408.94;4441162;32;20509;-82
2022/06/21 05:44:58;;;;;;;;;;;;;;;22.48;40.93;99408.25;4451781;32;20021;-84
2022/06/21 05:47:27;;;;;;;;;;;;;;;22.73;40.88;99414.28;4432975;32;20000;-81
2022/06/21 05:49:55;;;;;;;;;;;;;;;22.91;38.77;99417.06;4447268;32;19961;-81
2022/06/21 05:52:26;;;;;;;;;;;;;;;22.84;37.88;99400.63;4443339;32;20012;-80
2022/06/21 05:55:02;;;;;;;;;;;;;;;22.56;39.27;99416.75;4433771;32;20000;-80
2022/06/21 05:58:01;;;;;;;;;;;;;;;22.51;39.76;99429.25;4433488;32;20001;-80
2022/06/21 06:00:47;;;;;;;;;;;;;;;22.60;39.03;99422.75;4417403;32;20026;-80
2022/06/21 06:03:26;;;;;;;;;;;;;;;22.66;39.35;99436.56;4438880;32;19982;-81
2022/06/21 06:05:53;;;;;;;;;;;;;;;22.54;39.53;99431.75;4431734;32;19973;-80
2022/06/21 06:08:22;;;;;;;;;;;;;;;22.52;40.18;99436.22;4411984;32;19989;-80
2022/06/21 06:10:49;;;;;;;;;;;;;;;22.58;39.63;99430.72;4436488;32;19973;-80
2022/06/21 06:13:29;;;;;;;;;;;;;;;22.91;39.23;99438.19;4424248;32;19986;-80
2022/06/21 06:15:57;;;;;;;;;;;;;;;22.69;38.13;99439.06;4435818;32;20041;-80
2022/06/21 06:18:29;;;;;;;;;;;;;;;23.14;36.75;99435.50;4444116;32;19978;-80
2022/06/21 06:21:00;;;;;;;;;;;;;;;23.37;35.78;99436.31;4435887;32;19982;-81
2022/06/21 06:23:46;;;;;;;;;;;;;;;23.47;35.44;99442.91;4432472;32;20007;-80
2022/06/21 06:26:25;;;;;;;;;;;;;;;23.59;34.06;99447.66;4421832;32;19990;-80
2022/06/21 06:29:11;;;;;;;;;;;;;;;23.91;33.96;99445.41;4424463;32;20004;-80
2022/06/21 06:31:53;;;;;;;;;;;;;;;24.26;33.61;99446.44;4438624;32;19988;-80
2022/06/21 06:34:29;;;;;;;;;;;;;;;24.75;32.93;99453.88;4429927;32;19988;-80
2022/06/21 06:36:57;;;;;;;;;;;;;;;24.73;31.17;99446.00;4435236;32;19999;-80
2022/06/21 06:39:25;;;;;;;;;;;;;;;24.47;32.61;99452.53;4434858;32;19981;-80
2022/06/21 06:41:57;;;;;;;;;;;;;;;24.64;32.09;99453.53;4434956;32;19973;-80
2022/06/21 06:44:26;;;;;;;;;;;;;;;24.76;32.34;99455.56;4417887;32;19985;-81
2022/06/21 06:46:53;;;;;;;;;;;;;;;25.03;31.68;99462.16;4434058;32;20424;-80
2022/06/21 06:49:20;;;;;;;;;;;;;;;25.03;31.58;99464.81;4430573;32;19995;-80
2022/06/21 06:51:57;;;;;;;;;;;;;;;25.38;30.62;99456.94;4429983;32;19965;-80
2022/06/21 06:54:35;;;;;;;;;;;;;;;25.35;30.09;99450.94;4436660;32;19985;-80
2022/06/21 06:57:14;;;;;;;;;;;;;;;25.29;30.05;99457.41;4433537;32;20475;-81
2022/06/21 06:59:41;;;;;;;;;;;;;;;25.24;30.77;99454.13;4431628;32;19984;-81
2022/06/21 07:02:14;;;;;;;;;;;;;;;25.44;30.94;99456.62;4430120;32;20887;-79
2022/06/21 07:04:43;;;;;;;;;;;;;;;25.61;31.08;99457.53;4431540;32;19977;-80
2022/06/21 07:07:14;;;;;;;;;;;;;;;25.89;31.29;99463.12;4422847;32;20627;-81
2022/06/21 07:09:42;;;;;;;;;;;;;;;25.88;31.24;99453.47;4434050;32;20327;-80
2022/06/21 07:12:14;;;;;;;;;;;;;;;26.25;29.50;99459.44;4430660;32;19969;-81
2022/06/21 07:14:41;;;;;;;;;;;;;;;26.42;30.55;99471.81;4429389;32;20338;-80
2022/06/21 07:17:17;;;;;;;;;;;;;;;26.19;29.80;99471.22;4427424;32;20366;-81
2022/06/21 07:19:45;;;;;;;;;;;;;;;26.54;29.18;99464.97;4427907;32;20031;-84
2022/06/21 07:22:16;;;;;;;;;;;;;;;26.61;28.15;99471.66;4436984;32;20826;-87
2022/06/21 07:24:54;;;;;;;;;;;;;;;26.66;28.32;99477.56;4427480;32;20041;-81
2022/06/21 07:27:21;;;;;;;;;;;;;;;26.85;28.34;99491.53;4415739;32;20039;-86
2022/06/21 07:29:51;;;;;;;;;;;;;;;26.46;26.95;99493.72;4440097;32;19986;-87
2022/06/21 07:32:19;;;;;;;;;;;;;;;26.65;27.42;99495.31;4427509;32;20380;-86
2022/06/21 07:34:48;;;;;;;;;;;;;;;26.89;25.38;99493.06;4424444;32;20040;-84
2022/06/21 07:37:26;;;;;;;;;;;;;;;26.69;28.10;99500.44;4417080;32;20110;-83
2022/06/21 07:39:55;;;;;;;;;;;;;;;27.02;26.07;99498.53;4418695;32;19999;-83
2022/06/21 07:42:41;;;;;;;;;;;;;;;27.06;26.55;99499.22;4431683;32;20321;-84
2022/06/21 07:45:10;;;;;;;;;;;;;;;27.49;26.88;99502.06;4451884;32;19981;-84
2022/06/21 07:48:06;;;;;;;;;;;;;;;27.60;25.65;99499.63;4439722;32;19993;-85
2022/06/21 07:50:38;;;;;;;;;;;;;;;27.69;25.13;99499.06;4433102;32;20370;-84
2022/06/21 07:53:17;;;;;;;;;;;;;;;27.79;25.18;99494.94;4444869;32;19989;-85
2022/06/21 07:55:45;;;;;;;;;;;;;;;27.97;23.95;99494.75;4442295;32;20491;-86
2022/06/21 07:58:14;;;;;;;;;;;;;;;27.90;24.41;99493.44;4448818;32;20004;-85
2022/06/21 08:09:15;;;;;;;;;;;;;;;27.97;24.86;99508.06;4438165;32;19969;-84
2022/06/21 08:11:43;;;;;;;;;;;;;;;27.72;25.37;99501.53;4442910;32;20055;-84
2022/06/21 08:14:10;;;;;;;;;;;;;;;28.20;24.60;99488.88;4442222;32;20454;-85
2022/06/21 08:16:43;;;;;;;;;;;;;;;28.29;23.74;99482.97;4442372;32;19994;-85
2022/06/21 08:19:12;;;;;;;;;;;;;;;28.17;24.51;99494.38;4435410;32;20034;-87
2022/06/21 08:21:44;;;;;;;;;;;;;;;27.93;25.10;99495.91;4430747;32;19999;-91
2022/06/21 08:24:14;;;;;;;;;;;;;;;28.27;24.43;99500.88;4419109;32;19981;-84
2022/06/21 08:27:01;;;;;;;;;;;;;;;27.99;25.09;99500.84;4427365;32;20021;-88
2022/06/21 08:29:44;;;;;;;;;;;;;;;28.56;22.69;99500.88;4412875;32;19997;-87
2022/06/21 08:32:31;;;;;;;;;;;;;;;28.42;23.11;99504.38;4414705;32;20006;-89
2022/06/21 08:35:16;;;;;;;;;;;;;;;28.65;21.80;99500.25;4423567;32;19985;-88
2022/06/21 08:37:46;;;;;;;;;;;;;;;28.62;22.82;99500.47;4434024;32;20024;-89
2022/06/21 08:40:19;;;;;;;;;;;;;;;28.47;22.76;99512.09;4435701;32;20323;-88
2022/06/21 08:42:47;;;;;;;;;;;;;;;28.51;22.97;99502.94;4424497;32;19989;-87
2022/06/21 08:45:42;;;;;;;;;;;;;;;28.14;24.38;99513.19;4437952;32;20809;-88
2022/06/21 08:48:17;;;;;;;;;;;;;;;28.24;23.31;99511.69;4422670;32;20008;-88
2022/06/21 08:51:03;;;;;;;;;;;;;;;28.25;23.27;99524.06;4419802;32;19991;-86
2022/06/21 08:53:59;;;;;;;;;;;;;;;27.97;22.12;99518.72;4421554;32;20354;-85
2022/06/21 08:56:31;;;;;;;;;;;;;;;27.89;23.82;99515.66;4422063;32;20319;-80
2022/06/21 08:58:58;;;;;;;;;;;;;;;28.62;22.32;99521.78;4431779;32;20028;-79
2022/06/21 09:01:42;;;;;;;;;;;;;;;28.10;25.29;99508.16;4414642;32;20017;-81
2022/06/21 09:04:17;;;;;;;;;;;;;;;28.58;22.85;99512.25;4428678;32;20750;-81
2022/06/21 09:06:53;;;;;;;;;;;;;;;28.63;22.32;99502.19;4414314;32;19996;-80
2022/06/21 09:09:23;;;;;;;;;;;;;;;28.43;21.57;99526.53;4398444;32;20002;-84
2022/06/21 09:11:54;;;;;;;;;;;;;;;28.31;22.28;99513.97;4411083;32;20036;-78
2022/06/21 09:14:31;;;;;;;;;;;;;;;28.03;23.39;99513.03;4399968;32;20481;-82
2022/06/21 09:16:58;;;;;;;;;;;;;;;28.19;24.42;99512.94;4396284;32;20311;-81
2022/06/21 09:19:28;;;;;;;;;;;;;;;28.24;22.69;99501.06;4421607;32;20275;-81
2022/06/21 09:22:09;;;;;;;;;;;;;;;28.20;22.15;99504.84;4444923;32;20008;-82
2022/06/21 09:24:40;;;;;;;;;;;;;;;28.10;22.86;99503.69;4435607;32;20034;-81
2022/06/21 09:27:19;;;;;;;;;;;;;;;28.44;22.28;99512.28;4429031;32;20894;-81
2022/06/21 09:30:04;;;;;;;;;;;;;;;28.15;23.13;99511.41;4439509;32;19978;-81
2022/06/21 09:32:50;;;;;;;;;;;;;;;28.25;25.54;99518.72;4418674;32;20080;-81
2022/06/21 09:35:21;;;;;;;;;;;;;;;28.56;24.41;99516.84;4435160;32;20032;-82
2022/06/21 09:37:53;;;;;;;;;;;;;;;28.96;23.10;99504.47;4447547;32;19973;-83
2022/06/21 09:40:31;;;;;;;;;;;;;;;29.04;22.76;99513.81;4434340;32;19993;-79
2022/06/21 09:43:19;;;;;;;;;;;;;;;28.49;24.68;99516.38;4436275;32;19977;-84
2022/06/21 09:45:57;;;;;;;;;;;;;;;29.22;22.05;99515.25;4447915;32;19981;-78
2022/06/21 09:48:43;;;;;;;;;;;;;;;29.26;20.81;99511.44;4433889;32;19965;-80
2022/06/21 09:51:51;;;;;;;;;;;;;;;28.95;21.32;99517.91;4442824;32;20027;-81
2022/06/21 09:54:41;;;;;;;;;;;;;;;28.78;21.79;99513.66;4419766;32;20049;-79
2022/06/21 09:57:08;;;;;;;;;;;;;;;28.70;24.85;99519.47;4418542;32;20034;-82
2022/06/21 09:59:41;;;;;;;;;;;;;;;28.93;23.06;99509.12;4419455;32;19985;-86
2022/06/21 10:02:26;;;;;;;;;;;;;;;28.84;22.97;99513.25;4439711;32;20026;-84
2022/06/21 10:05:12;;;;;;;;;;;;;;;29.43;21.69;99502.31;4434732;32;20395;-81
2022/06/21 10:07:51;;;;;;;;;;;;;;;29.43;20.72;99504.97;4432553;32;19982;-80
2022/06/21 10:10:27;;;;;;;;;;;;;;;29.47;20.67;99511.78;4451897;32;20069;-80
2022/06/21 10:12:54;;;;;;;;;;;;;;;29.25;21.09;99508.84;4432565;32;19977;-84
2022/06/21 10:15:24;;;;;;;;;;;;;;;29.46;21.60;99517.25;4439963;32;19985;-84
2022/06/21 10:18:06;;;;;;;;;;;;;;;29.46;21.04;99518.09;4432896;32;20349;-81
2022/06/21 10:20:36;;;;;;;;;;;;;;;29.12;21.76;99515.00;4431501;32;19986;-85
2022/06/21 10:23:17;;;;;;;;;;;;;;;28.88;24.39;99505.94;4432240;32;19992;-81
2022/06/21 10:25:44;;;;;;;;;;;;;;;29.47;22.47;99513.63;4442383;32;20035;-85
2022/06/21 10:28:11;;;;;;;;;;;;;;;29.06;23.28;99515.41;4445808;32;20029;-82
2022/06/21 10:30:43;;;;;;;;;;;;;;;29.37;22.13;99508.03;4440212;32;19977;-80
2022/06/21 10:33:19;;;;;;;;;;;;;;;29.53;24.35;99507.88;4446107;32;19993;-80
2022/06/21 10:36:05;;;;;;;;;;;;;;;29.40;22.11;99515.84;4442395;32;19995;-80
2022/06/21 10:38:31;;;;;;;;;;;;;;;29.12;23.18;99520.31;4433654;32;20109;-80
2022/06/21 10:40:58;;;;;;;;;;;;;;;29.34;23.02;99508.25;4438988;32;20262;-85
2022/06/21 10:43:29;;;;;;;;;;;;;;;29.65;21.99;99497.25;4432218;32;20505;-82
2022/06/21 10:45:57;;;;;;;;;;;;;;;29.57;22.27;99510.22;4431767;32;19974;-82
2022/06/21 10:48:43;;;;;;;;;;;;;;;29.68;20.80;99503.34;4438075;32;20001;-82
2022/06/21 10:51:16;;;;;;;;;;;;;;;29.88;21.22;99505.47;4454823;32;19977;-84
2022/06/21 10:53:52;;;;;;;;;;;;;;;29.77;20.65;99516.91;4454480;32;20358;-83
2022/06/21 10:59:12;;;;;;;;;;;;;;;29.74;21.73;99518.91;4432176;32;20036;-81
2022/06/21 11:01:59;;;;;;;;;;;;;;;29.83;20.60;99510.28;4442788;32;20004;-80
2022/06/21 11:04:41;;;;;;;;;;;;;;;29.85;21.49;99514.56;4442401;32;20025;-83
2022/06/21 11:07:15;;;;;;;;;;;;;;;30.04;21.07;99522.13;4441843;32;19973;-85
2022/06/21 11:09:55;;;;;;;;;;;;;;;29.85;20.62;99514.56;4430476;32;19996;-84
2022/06/21 11:15:30;;;;;;;;;;;;;;;29.65;22.01;99518.59;4430654;32;20008;-84
2022/06/21 11:18:02;;;;;;;;;;;;;;;29.65;21.00;99505.25;4430363;32;19977;-80
2022/06/21 11:20:39;;;;;;;;;;;;;;;29.55;22.97;99520.16;4438674;32;19992;-80
2022/06/21 11:23:09;;;;;;;;;;;;;;;29.98;21.33;99514.56;4450031;32;19977;-80
2022/06/21 11:25:45;;;;;;;;;;;;;;;29.94;21.72;99518.41;4453668;32;20048;-80
2022/06/21 11:28:13;;;;;;;;;;;;;;;29.78;21.24;99523.09;4440590;32;19996;-79
2022/06/21 11:30:40;;;;;;;;;;;;;;;29.71;21.55;99524.44;4457813;32;19994;-81
2022/06/21 11:33:14;;;;;;;;;;;;;;;29.75;22.13;99520.63;4457734;32;19977;-80
2022/06/21 11:35:43;;;;;;;;;;;;;;;29.16;24.21;99512.97;4455250;32;20870;-81
2022/06/21 11:38:36;;;;;;;;;;;;;;;29.85;20.46;99521.72;4460423;32;20372;-83
2022/06/21 11:42:03;;;;;;;;;;;;;;;29.90;20.60;99522.25;4436337;32;19997;-84
2022/06/21 11:44:22;;;;;;;;;;;;;;;29.82;20.28;99529.91;4465077;32;19985;-81
2022/06/21 11:46:55;;;;;;;;;;;;;;;29.52;20.02;99533.69;4450629;32;19999;-80
2022/06/21 11:49:35;;;;;;;;;;;;;;;29.43;21.09;99524.47;4446213;32;20736;-79
2022/06/21 11:52:16;;;;;;;;;;;;;;;29.65;21.64;99518.59;4443200;32;21597;-79
2022/06/21 11:54:44;;;;;;;;;;;;;;;29.57;22.85;99520.87;4458117;32;20048;-78
2022/06/21 11:57:14;;;;;;;;;;;;;;;29.59;24.00;99518.97;4459025;32;19999;-79
2022/06/21 11:59:44;;;;;;;;;;;;;;;29.94;19.17;99523.75;4443801;32;20023;-79
2022/06/21 12:02:21;;;;;;;;;;;;;;;29.75;20.53;99533.97;4425636;32;20379;-81
2022/06/21 12:05:01;;;;;;;;;;;;;;;29.89;20.56;99525.88;4428402;32;19989;-79
2022/06/21 12:07:33;;;;;;;;;;;;;;;29.43;20.05;99539.62;4441862;32;20056;-80
2022/06/21 12:10:02;;;;;;;;;;;;;;;29.47;20.31;99519.78;4448735;32;20823;-79
2022/06/21 12:12:48;;;;;;;;;;;;;;;29.55;19.60;99501.47;4443491;32;19992;-81
2022/06/21 12:15:15;;;;;;;;;;;;;;;29.70;21.74;99514.75;4445780;32;19985;-81
2022/06/21 12:17:47;;;;;;;;;;;;;;;29.77;19.52;99513.34;4461784;32;20022;-80
2022/06/21 12:20:16;;;;;;;;;;;;;;;29.78;19.93;99517.75;4451735;32;19976;-81
2022/06/21 12:22:44;;;;;;;;;;;;;;;29.77;22.57;99513.34;4441817;32;19989;-81
2022/06/21 12:25:11;;;;;;;;;;;;;;;29.50;21.18;99513.41;4432031;32;19985;-79
2022/06/21 12:27:38;;;;;;;;;;;;;;;29.66;21.84;99504.28;4442278;32;20012;-79
2022/06/21 12:30:15;;;;;;;;;;;;;;;29.60;20.40;99504.69;4455863;32;20322;-84
2022/06/21 12:32:42;;;;;;;;;;;;;;;29.45;21.26;99505.69;4464759;32;19981;-80
2022/06/21 12:35:16;;;;;;;;;;;;;;;29.44;21.05;99504.00;4440625;32;19987;-79
2022/06/21 12:37:44;;;;;;;;;;;;;;;29.44;21.48;99498.66;4441872;32;19998;-81
2022/06/21 12:40:14;;;;;;;;;;;;;;;29.63;21.16;99488.47;4421809;32;19986;-80
2022/06/21 12:42:50;;;;;;;;;;;;;;;29.59;21.46;99484.28;4430635;32;20056;-80
2022/06/21 12:45:40;;;;;;;;;;;;;;;29.60;21.54;99491.37;4442036;32;20338;-79
2022/06/21 12:48:17;;;;;;;;;;;;;;;29.44;21.75;99488.00;4448106;32;20358;-81
2022/06/21 12:50:50;;;;;;;;;;;;;;;29.45;23.11;99487.03;4422202;32;19997;-79
2022/06/21 12:53:21;;;;;;;;;;;;;;;29.60;22.18;99477.13;4433926;32;19981;-81
2022/06/21 12:56:05;;;;;;;;;;;;;;;29.66;23.21;99482.09;4453575;32;20409;-81
2022/06/21 12:58:50;;;;;;;;;;;;;;;29.70;21.70;99477.41;4417327;32;20900;-81
2022/06/21 13:01:18;;;;;;;;;;;;;;;29.64;21.77;99474.22;4433968;32;20711;-81
2022/06/21 13:03:53;;;;;;;;;;;;;;;29.57;20.65;99480.88;4440099;32;20381;-81
2022/06/21 13:06:21;;;;;;;;;;;;;;;29.59;19.84;99470.97;4437361;32;19985;-82
2022/06/21 13:08:51;;;;;;;;;;;;;;;29.40;19.98;99482.03;4434190;32;20025;-82
2022/06/21 13:11:19;;;;;;;;;;;;;;;29.05;23.11;99484.38;4449972;32;20045;-82
2022/06/21 13:13:54;;;;;;;;;;;;;;;29.24;20.91;99485.84;4445904;32;20045;-82
2022/06/21 13:16:20;;;;;;;;;;;;;;;29.02;23.23;99481.91;4422973;32;20678;-82
2022/06/21 13:18:51;;;;;;;;;;;;;;;29.29;22.34;99468.56;4446549;32;20306;-82
2022/06/21 13:21:24;;;;;;;;;;;;;;;29.11;22.46;99469.81;4447460;32;20492;-82
2022/06/21 13:24:06;;;;;;;;;;;;;;;28.60;24.07;99473.06;4434087;32;20008;-82
2022/06/21 13:26:55;;;;;;;;;;;;;;;29.04;22.14;99474.69;4443231;32;20000;-81
2022/06/21 13:29:29;;;;;;;;;;;;;;;29.12;22.44;99488.34;4450219;32;19976;-82
2022/06/21 13:31:58;;;;;;;;;;;;;;;29.10;21.71;99484.94;4450594;32;20025;-81